createdAt,value
2023-03-15T00:00:26.274Z,1002.46
2023-03-15T00:01:26.278Z,1002.50
2023-03-15T00:02:26.344Z,1002.47
2023-03-15T00:03:26.317Z,1002.53
2023-03-15T00:04:26.289Z,1002.47
2023-03-15T00:05:26.281Z,1002.47
2023-03-15T00:06:26.295Z,1002.56
2023-03-15T00:07:26.281Z,1002.56
2023-03-15T00:08:26.283Z,1002.58
2023-03-15T00:09:26.316Z,1002.58
2023-03-15T00:10:26.313Z,1002.59
2023-03-15T00:11:26.290Z,1002.62
2023-03-15T00:12:26.290Z,1002.61
2023-03-15T00:13:26.288Z,1002.64
2023-03-15T00:14:26.301Z,1002.64
2023-03-15T00:15:26.298Z,1002.66
2023-03-15T00:16:26.293Z,1002.69
2023-03-15T00:17:26.302Z,1002.66
2023-03-15T00:18:26.305Z,1002.65
2023-03-15T00:19:26.300Z,1002.65
2023-03-15T00:20:26.305Z,1002.69
2023-03-15T00:21:26.305Z,1002.65
2023-03-15T00:22:26.304Z,1002.68
2023-03-15T00:23:26.306Z,1002.70
2023-03-15T00:24:26.310Z,1002.72
2023-03-15T00:25:26.324Z,1002.72
2023-03-15T00:26:26.314Z,1002.72
2023-03-15T00:27:26.313Z,1002.75
2023-03-15T00:28:26.308Z,1002.80
2023-03-15T00:29:26.317Z,1002.79
2023-03-15T00:30:26.320Z,1002.80
2023-03-15T00:31:26.392Z,1002.81
2023-03-15T00:32:26.343Z,1002.76
2023-03-15T00:33:26.321Z,1002.80
2023-03-15T00:34:26.326Z,1002.81
2023-03-15T00:35:26.317Z,1002.82
2023-03-15T00:36:26.327Z,1002.82
2023-03-15T00:37:26.326Z,1002.83
2023-03-15T00:38:26.323Z,1002.84
2023-03-15T00:39:26.331Z,1002.82
2023-03-15T00:40:26.324Z,1002.85
2023-03-15T00:41:26.349Z,1002.81
2023-03-15T00:42:26.327Z,1002.85
2023-03-15T00:43:26.337Z,1002.85
2023-03-15T00:44:26.343Z,1002.85
2023-03-15T00:45:26.353Z,1002.89
2023-03-15T00:46:26.391Z,1002.83
2023-03-15T00:47:26.339Z,1002.90
2023-03-15T00:48:26.333Z,1002.90
2023-03-15T00:49:26.337Z,1002.95
2023-03-15T00:50:26.358Z,1002.96
2023-03-15T00:51:26.343Z,1002.98
2023-03-15T00:52:26.347Z,1002.97
2023-03-15T00:53:26.348Z,1003.01
2023-03-15T00:54:26.341Z,1003.04
2023-03-15T00:55:26.348Z,1003.04
2023-03-15T00:56:26.353Z,1002.99
2023-03-15T00:57:26.362Z,1003.04
2023-03-15T00:58:27.561Z,1003.04
2023-03-15T00:59:26.352Z,1003.03
2023-03-15T01:00:26.346Z,1003.03
2023-03-15T01:01:26.426Z,1003.04
2023-03-15T01:02:26.365Z,1003.03
2023-03-15T01:03:26.348Z,1003.07
2023-03-15T01:04:26.352Z,1003.08
2023-03-15T01:05:26.354Z,1003.07
2023-03-15T01:06:26.355Z,1003.06
2023-03-15T01:07:26.368Z,1003.07
2023-03-15T01:08:26.381Z,1003.12
2023-03-15T01:09:26.361Z,1003.12
2023-03-15T01:10:26.362Z,1003.08
2023-03-15T01:11:26.385Z,1003.12
2023-03-15T01:12:26.358Z,1003.11
2023-03-15T01:13:26.382Z,1003.08
2023-03-15T01:14:26.387Z,1003.12
2023-03-15T01:15:26.369Z,1003.16
2023-03-15T01:16:26.438Z,1003.11
2023-03-15T01:17:26.369Z,1003.15
2023-03-15T01:18:26.363Z,1003.17
2023-03-15T01:19:26.371Z,1003.15
2023-03-15T01:20:26.364Z,1003.18
2023-03-15T01:21:26.389Z,1003.15
2023-03-15T01:22:26.373Z,1003.17
2023-03-15T01:23:26.366Z,1003.21
2023-03-15T01:24:26.372Z,1003.22
2023-03-15T01:25:26.375Z,1003.17
2023-03-15T01:26:26.382Z,1003.16
2023-03-15T01:27:26.379Z,1003.16
2023-03-15T01:28:26.374Z,1003.14
2023-03-15T01:29:26.406Z,1003.16
2023-03-15T01:30:26.376Z,1003.16
2023-03-15T01:31:26.443Z,1003.13
2023-03-15T01:32:26.421Z,1003.17
2023-03-15T01:33:26.389Z,1003.17
2023-03-15T01:34:26.378Z,1003.17
2023-03-15T01:35:26.389Z,1003.17
2023-03-15T01:36:26.392Z,1003.16
2023-03-15T01:37:26.393Z,1003.18
2023-03-15T01:38:26.379Z,1003.21
2023-03-15T01:39:26.389Z,1003.20
2023-03-15T01:40:26.387Z,1003.23
2023-03-15T01:41:26.398Z,1003.24
2023-03-15T01:42:26.392Z,1003.25
2023-03-15T01:43:26.408Z,1003.26
2023-03-15T01:44:26.386Z,1003.27
2023-03-15T01:45:26.413Z,1003.30
2023-03-15T01:46:26.536Z,1003.26
2023-03-15T01:47:26.387Z,1003.26
2023-03-15T01:48:26.389Z,1003.28
2023-03-15T01:49:26.392Z,1003.28
2023-03-15T01:50:26.385Z,1003.30
2023-03-15T01:51:26.396Z,1003.38
2023-03-15T01:52:26.393Z,1003.37
2023-03-15T01:53:26.391Z,1003.38
2023-03-15T01:54:26.388Z,1003.41
2023-03-15T01:55:26.395Z,1003.39
2023-03-15T01:56:26.390Z,1003.38
2023-03-15T01:57:26.397Z,1003.40
2023-03-15T01:58:26.397Z,1003.43
2023-03-15T01:59:26.403Z,1003.39
2023-03-15T02:00:26.391Z,1003.39
2023-03-15T02:01:26.424Z,1003.38
2023-03-15T02:02:26.459Z,1003.43
2023-03-15T02:03:26.396Z,1003.46
2023-03-15T02:04:26.405Z,1003.47
2023-03-15T02:05:26.402Z,1003.46
2023-03-15T02:06:26.406Z,1003.41
2023-03-15T02:07:26.400Z,1003.44
2023-03-15T02:08:26.412Z,1003.47
2023-03-15T02:09:26.409Z,1003.45
2023-03-15T02:10:26.399Z,1003.49
2023-03-15T02:11:26.403Z,1003.48
2023-03-15T02:12:26.411Z,1003.47
2023-03-15T02:13:26.404Z,1003.49
2023-03-15T02:14:26.412Z,1003.50
2023-03-15T02:15:26.407Z,1003.51
2023-03-15T02:16:26.508Z,1003.51
2023-03-15T02:17:26.440Z,1003.50
2023-03-15T02:18:26.411Z,1003.53
2023-03-15T02:19:26.418Z,1003.55
2023-03-15T02:20:26.412Z,1003.51
2023-03-15T02:21:26.411Z,1003.53
2023-03-15T02:22:26.413Z,1003.54
2023-03-15T02:23:26.422Z,1003.56
2023-03-15T02:24:26.423Z,1003.60
2023-03-15T02:25:26.424Z,1003.55
2023-03-15T02:26:26.416Z,1003.58
2023-03-15T02:27:26.506Z,1003.61
2023-03-15T02:28:26.427Z,1003.59
2023-03-15T02:29:26.421Z,1003.63
2023-03-15T02:30:26.421Z,1003.67
2023-03-15T02:31:26.492Z,1003.63
2023-03-15T02:32:26.466Z,1003.68
2023-03-15T02:33:26.454Z,1003.64
2023-03-15T02:34:26.431Z,1003.67
2023-03-15T02:35:26.430Z,1003.68
2023-03-15T02:36:26.426Z,1003.72
2023-03-15T02:37:26.436Z,1003.73
2023-03-15T02:38:26.434Z,1003.74
2023-03-15T02:39:26.428Z,1003.76
2023-03-15T02:40:26.429Z,1003.72
2023-03-15T02:41:26.430Z,1003.79
2023-03-15T02:42:26.437Z,1003.72
2023-03-15T02:43:26.433Z,1003.73
2023-03-15T02:44:26.432Z,1003.75
2023-03-15T02:45:26.441Z,1003.73
2023-03-15T02:46:26.558Z,1003.75
2023-03-15T02:47:26.439Z,1003.77
2023-03-15T02:48:26.439Z,1003.73
2023-03-15T02:49:26.466Z,1003.75
2023-03-15T02:50:26.442Z,1003.79
2023-03-15T02:51:26.453Z,1003.77
2023-03-15T02:52:26.456Z,1003.76
2023-03-15T02:53:26.455Z,1003.78
2023-03-15T02:54:26.445Z,1003.82
2023-03-15T02:55:26.446Z,1003.77
2023-03-15T02:56:26.454Z,1003.87
2023-03-15T02:57:26.450Z,1003.83
2023-03-15T02:58:26.455Z,1003.86
2023-03-15T02:59:26.455Z,1003.87
2023-03-15T03:00:26.454Z,1003.87
2023-03-15T03:01:26.533Z,1003.86
2023-03-15T03:02:26.534Z,1003.86
2023-03-15T03:03:26.459Z,1003.88
2023-03-15T03:04:26.450Z,1003.87
2023-03-15T03:06:26.485Z,1003.91
2023-03-15T03:07:26.463Z,1003.91
2023-03-15T03:08:27.872Z,1003.95
2023-03-15T03:09:26.458Z,1003.98
2023-03-15T03:10:26.472Z,1003.91
2023-03-15T03:11:26.458Z,1003.93
2023-03-15T03:12:26.865Z,1004.00
2023-03-15T03:13:26.462Z,1003.98
2023-03-15T03:14:26.463Z,1003.95
2023-03-15T03:15:26.471Z,1003.95
2023-03-15T03:16:26.520Z,1003.97
2023-03-15T03:17:26.471Z,1004.07
2023-03-15T03:18:26.475Z,1004.02
2023-03-15T03:19:26.473Z,1004.07
2023-03-15T03:20:26.475Z,1004.02
2023-03-15T03:21:26.483Z,1004.05
2023-03-15T03:22:26.491Z,1004.05
2023-03-15T03:23:26.478Z,1004.02
2023-03-15T03:24:26.487Z,1004.07
2023-03-15T03:25:26.666Z,1004.02
2023-03-15T03:26:27.687Z,1004.02
2023-03-15T03:27:26.472Z,1004.04
2023-03-15T03:28:26.467Z,1004.03
2023-03-15T03:29:26.468Z,1004.09
2023-03-15T03:30:26.482Z,1004.16
2023-03-15T03:31:26.474Z,1004.15
2023-03-15T03:32:26.500Z,1004.14
2023-03-15T03:33:26.470Z,1004.15
2023-03-15T03:34:29.166Z,1004.23
2023-03-15T03:35:26.483Z,1004.20
2023-03-15T03:36:26.480Z,1004.23
2023-03-15T03:37:26.485Z,1004.22
2023-03-15T03:38:26.500Z,1004.27
2023-03-15T03:39:26.482Z,1004.28
2023-03-15T03:40:26.481Z,1004.28
2023-03-15T03:41:27.090Z,1004.30
2023-03-15T03:42:26.473Z,1004.31
2023-03-15T03:43:26.482Z,1004.28
2023-03-15T03:44:26.475Z,1004.30
2023-03-15T03:45:26.483Z,1004.33
2023-03-15T03:46:26.529Z,1004.33
2023-03-15T03:47:26.485Z,1004.33
2023-03-15T03:48:26.486Z,1004.37
2023-03-15T03:49:26.486Z,1004.36
2023-03-15T03:50:26.479Z,1004.44
2023-03-15T03:51:26.486Z,1004.43
2023-03-15T03:52:26.494Z,1004.46
2023-03-15T03:53:26.494Z,1004.49
2023-03-15T03:54:26.510Z,1004.48
2023-03-15T03:55:26.484Z,1004.51
2023-03-15T03:56:26.484Z,1004.51
2023-03-15T03:57:26.493Z,1004.54
2023-03-15T03:58:26.484Z,1004.51
2023-03-15T03:59:26.494Z,1004.54
2023-03-15T04:00:27.706Z,1004.54
2023-03-15T04:01:29.106Z,1004.55
2023-03-15T04:02:26.522Z,1004.58
2023-03-15T04:03:26.486Z,1004.69
2023-03-15T04:04:26.561Z,1004.67
2023-03-15T04:05:26.498Z,1004.69
2023-03-15T04:06:26.490Z,1004.65
2023-03-15T04:07:26.493Z,1004.71
2023-03-15T04:08:26.500Z,1004.69
2023-03-15T04:09:27.909Z,1004.71
2023-03-15T04:10:26.525Z,1004.70
2023-03-15T04:11:26.495Z,1004.71
2023-03-15T04:12:26.577Z,1004.70
2023-03-15T04:14:26.496Z,1004.71
2023-03-15T04:15:26.499Z,1004.69
2023-03-15T04:16:26.671Z,1004.73
2023-03-15T04:17:26.504Z,1004.71
2023-03-15T04:18:26.504Z,1004.72
2023-03-15T04:19:26.497Z,1004.77
2023-03-15T04:20:26.499Z,1004.77
2023-03-15T04:21:26.500Z,1004.76
2023-03-15T04:22:26.502Z,1004.76
2023-03-15T04:23:26.506Z,1004.77
2023-03-15T04:24:29.129Z,1004.85
2023-03-15T04:25:26.533Z,1004.88
2023-03-15T04:26:26.573Z,1004.82
2023-03-15T04:27:26.512Z,1004.86
2023-03-15T04:28:26.510Z,1004.86
2023-03-15T04:29:26.507Z,1004.90
2023-03-15T04:30:26.506Z,1004.87
2023-03-15T04:31:26.545Z,1004.90
2023-03-15T04:32:26.557Z,1004.90
2023-03-15T04:33:29.136Z,1004.95
2023-03-15T04:34:26.513Z,1004.96
2023-03-15T04:35:29.133Z,1004.93
2023-03-15T04:36:26.522Z,1004.99
2023-03-15T04:37:26.520Z,1004.97
2023-03-15T04:38:26.537Z,1005.02
2023-03-15T04:39:26.520Z,1005.02
2023-03-15T04:40:27.539Z,1004.99
2023-03-15T04:41:26.523Z,1005.03
2023-03-15T04:42:26.750Z,1005.06
2023-03-15T04:43:26.522Z,1005.06
2023-03-15T04:44:26.552Z,1005.03
2023-03-15T04:45:26.526Z,1005.05
2023-03-15T04:46:26.545Z,1005.10
2023-03-15T04:47:26.548Z,1005.13
2023-03-15T04:48:26.546Z,1005.16
2023-03-15T04:49:26.548Z,1005.13
2023-03-15T04:50:26.538Z,1005.12
2023-03-15T04:51:26.535Z,1005.14
2023-03-15T04:52:26.537Z,1005.14
2023-03-15T04:53:26.537Z,1005.14
2023-03-15T04:54:26.534Z,1005.16
2023-03-15T04:55:26.555Z,1005.17
2023-03-15T04:56:26.538Z,1005.17
2023-03-15T04:57:26.534Z,1005.19
2023-03-15T04:58:26.584Z,1005.21
2023-03-15T04:59:26.541Z,1005.20
2023-03-15T05:00:26.591Z,1005.25
2023-03-15T05:01:26.546Z,1005.23
2023-03-15T05:02:26.601Z,1005.27
2023-03-15T05:03:26.551Z,1005.29
2023-03-15T05:04:26.541Z,1005.27
2023-03-15T05:05:26.543Z,1005.31
2023-03-15T05:06:26.545Z,1005.32
2023-03-15T05:07:26.555Z,1005.32
2023-03-15T05:08:26.552Z,1005.34
2023-03-15T05:09:26.551Z,1005.35
2023-03-15T05:10:26.558Z,1005.38
2023-03-15T05:11:26.560Z,1005.39
2023-03-15T05:12:26.551Z,1005.38
2023-03-15T05:13:26.549Z,1005.39
2023-03-15T05:14:26.638Z,1005.45
2023-03-15T05:15:26.640Z,1005.44
2023-03-15T05:16:26.662Z,1005.43
2023-03-15T05:17:26.558Z,1005.45
2023-03-15T05:18:26.562Z,1005.47
2023-03-15T05:19:26.556Z,1005.53
2023-03-15T05:20:26.558Z,1005.53
2023-03-15T05:21:26.565Z,1005.57
2023-03-15T05:22:26.568Z,1005.61
2023-03-15T05:23:26.570Z,1005.62
2023-03-15T05:24:26.562Z,1005.64
2023-03-15T05:25:26.570Z,1005.66
2023-03-15T05:26:26.572Z,1005.69
2023-03-15T05:27:26.580Z,1005.74
2023-03-15T05:28:26.564Z,1005.77
2023-03-15T05:29:26.570Z,1005.71
2023-03-15T05:30:26.608Z,1005.74
2023-03-15T05:31:26.591Z,1005.76
2023-03-15T05:32:26.661Z,1005.76
2023-03-15T05:33:26.572Z,1005.73
2023-03-15T05:34:26.580Z,1005.74
2023-03-15T05:35:26.776Z,1005.81
2023-03-15T05:36:26.580Z,1005.80
2023-03-15T05:37:26.582Z,1005.84
2023-03-15T05:38:26.762Z,1005.82
2023-03-15T05:39:26.578Z,1005.85
2023-03-15T05:40:26.587Z,1005.85
2023-03-15T05:41:26.584Z,1005.86
2023-03-15T05:42:26.591Z,1005.89
2023-03-15T05:43:26.592Z,1005.90
2023-03-15T05:44:26.587Z,1005.94
2023-03-15T05:45:26.584Z,1005.99
2023-03-15T05:46:26.616Z,1005.99
2023-03-15T05:47:26.589Z,1006.02
2023-03-15T05:48:26.585Z,1006.04
2023-03-15T05:49:26.608Z,1006.04
2023-03-15T05:50:26.587Z,1006.10
2023-03-15T05:51:26.603Z,1006.12
2023-03-15T05:52:26.604Z,1006.17
2023-03-15T05:53:26.595Z,1006.17
2023-03-15T05:54:26.589Z,1006.20
2023-03-15T05:55:26.616Z,1006.22
2023-03-15T05:56:26.596Z,1006.24
2023-03-15T05:57:26.607Z,1006.21
2023-03-15T05:58:26.592Z,1006.26
2023-03-15T05:59:26.605Z,1006.32
2023-03-15T06:00:26.601Z,1006.34
2023-03-15T06:01:26.591Z,1006.36
2023-03-15T06:02:26.626Z,1006.40
2023-03-15T06:03:26.640Z,1006.36
2023-03-15T06:04:26.685Z,1006.41
2023-03-15T06:05:26.602Z,1006.39
2023-03-15T06:06:26.599Z,1006.42
2023-03-15T06:07:26.600Z,1006.44
2023-03-15T06:08:26.616Z,1006.47
2023-03-15T06:09:26.609Z,1006.45
2023-03-15T06:10:26.608Z,1006.50
2023-03-15T06:11:26.600Z,1006.56
2023-03-15T06:12:26.612Z,1006.59
2023-03-15T06:13:26.612Z,1006.57
2023-03-15T06:14:26.607Z,1006.61
2023-03-15T06:15:26.616Z,1006.64
2023-03-15T06:16:26.634Z,1006.65
2023-03-15T06:17:26.609Z,1006.66
2023-03-15T06:18:26.703Z,1006.69
2023-03-15T06:19:26.626Z,1006.74
2023-03-15T06:20:26.617Z,1006.73
2023-03-15T06:21:26.613Z,1006.73
2023-03-15T06:22:26.620Z,1006.73
2023-03-15T06:23:26.624Z,1006.71
2023-03-15T06:24:26.615Z,1006.78
2023-03-15T06:25:26.625Z,1006.75
2023-03-15T06:26:26.624Z,1006.79
2023-03-15T06:27:26.633Z,1006.80
2023-03-15T06:28:26.628Z,1006.82
2023-03-15T06:29:26.622Z,1006.83
2023-03-15T06:30:26.622Z,1006.85
2023-03-15T06:31:26.625Z,1006.89
2023-03-15T06:32:26.669Z,1006.90
2023-03-15T06:33:26.634Z,1006.91
2023-03-15T06:34:26.646Z,1006.93
2023-03-15T06:35:26.638Z,1006.94
2023-03-15T06:36:26.631Z,1006.96
2023-03-15T06:37:35.007Z,1006.95
2023-03-15T06:38:26.632Z,1006.97
2023-03-15T06:39:26.636Z,1006.98
2023-03-15T06:40:26.641Z,1007.04
2023-03-15T06:41:26.645Z,1007.04
2023-03-15T06:42:26.637Z,1007.08
2023-03-15T06:43:26.640Z,1007.12
2023-03-15T06:44:26.653Z,1007.11
2023-03-15T06:45:26.650Z,1007.14
2023-03-15T06:46:26.734Z,1007.17
2023-03-15T06:47:26.644Z,1007.20
2023-03-15T06:48:26.654Z,1007.16
2023-03-15T06:49:26.664Z,1007.20
2023-03-15T06:50:29.483Z,1007.20
2023-03-15T06:51:26.659Z,1007.22
2023-03-15T06:52:26.651Z,1007.21
2023-03-15T06:53:26.655Z,1007.21
2023-03-15T06:54:26.668Z,1007.21
2023-03-15T06:55:26.663Z,1007.25
2023-03-15T06:56:26.659Z,1007.21
2023-03-15T06:57:26.671Z,1007.22
2023-03-15T06:58:26.695Z,1007.29
2023-03-15T06:59:26.668Z,1007.31
2023-03-15T07:00:26.671Z,1007.30
2023-03-15T07:01:26.755Z,1007.31
2023-03-15T07:02:26.866Z,1007.33
2023-03-15T07:03:26.674Z,1007.34
2023-03-15T07:04:26.673Z,1007.34
2023-03-15T07:05:26.706Z,1007.39
2023-03-15T07:06:26.704Z,1007.40
2023-03-15T07:07:26.686Z,1007.42
2023-03-15T07:08:26.688Z,1007.45
2023-03-15T07:09:26.682Z,1007.46
2023-03-15T07:10:26.684Z,1007.50
2023-03-15T07:11:26.689Z,1007.53
2023-03-15T07:12:26.697Z,1007.47
2023-03-15T07:13:26.693Z,1007.50
2023-03-15T07:14:26.701Z,1007.50
2023-03-15T07:15:26.724Z,1007.50
2023-03-15T07:16:26.703Z,1007.49
2023-03-15T07:17:26.699Z,1007.50
2023-03-15T07:18:26.700Z,1007.49
2023-03-15T07:19:26.713Z,1007.54
2023-03-15T07:20:26.733Z,1007.53
2023-03-15T07:21:26.724Z,1007.58
2023-03-15T07:22:26.733Z,1007.61
2023-03-15T07:23:26.729Z,1007.62
2023-03-15T07:24:26.718Z,1007.62
2023-03-15T07:25:26.718Z,1007.60
2023-03-15T07:26:26.720Z,1007.64
2023-03-15T07:27:26.723Z,1007.70
2023-03-15T07:28:26.717Z,1007.66
2023-03-15T07:29:26.731Z,1007.65
2023-03-15T07:30:26.729Z,1007.67
2023-03-15T07:31:26.722Z,1007.68
2023-03-15T07:32:26.820Z,1007.69
2023-03-15T07:33:26.880Z,1007.71
2023-03-15T07:34:26.735Z,1007.73
2023-03-15T07:35:26.743Z,1007.76
2023-03-15T07:36:26.732Z,1007.73
2023-03-15T07:37:26.737Z,1007.78
2023-03-15T07:38:26.770Z,1007.76
2023-03-15T07:39:26.742Z,1007.79
2023-03-15T07:40:26.764Z,1007.81
2023-03-15T07:41:26.750Z,1007.81
2023-03-15T07:42:26.740Z,1007.80
2023-03-15T07:43:26.752Z,1007.85
2023-03-15T07:44:26.750Z,1007.83
2023-03-15T07:45:26.755Z,1007.81
2023-03-15T07:46:26.816Z,1007.86
2023-03-15T07:47:26.758Z,1007.86
2023-03-15T07:48:26.752Z,1007.91
2023-03-15T07:49:26.761Z,1007.93
2023-03-15T07:50:26.764Z,1007.94
2023-03-15T07:51:26.769Z,1007.93
2023-03-15T07:52:26.759Z,1007.94
2023-03-15T07:53:26.771Z,1007.95
2023-03-15T07:54:28.778Z,1007.99
2023-03-15T07:55:26.778Z,1008.00
2023-03-15T07:56:26.777Z,1008.01
2023-03-15T07:57:28.881Z,1007.97
2023-03-15T07:58:26.781Z,1008.06
2023-03-15T07:59:26.784Z,1008.08
2023-03-15T08:00:26.794Z,1008.06
2023-03-15T08:01:26.797Z,1008.07
2023-03-15T08:02:28.499Z,1008.08
2023-03-15T08:03:27.004Z,1008.07
2023-03-15T08:04:26.797Z,1008.12
2023-03-15T08:05:29.046Z,1008.09
2023-03-15T08:06:26.793Z,1008.15
2023-03-15T08:07:26.803Z,1008.26
2023-03-15T08:08:26.800Z,1008.20
2023-03-15T08:09:26.807Z,1008.27
2023-03-15T08:10:26.827Z,1008.25
2023-03-15T08:11:26.814Z,1008.18
2023-03-15T08:12:26.818Z,1008.22
2023-03-15T08:13:26.820Z,1008.22
2023-03-15T08:14:26.825Z,1008.22
2023-03-15T08:15:26.821Z,1008.15
2023-03-15T08:16:27.008Z,1008.27
2023-03-15T08:17:26.841Z,1008.31
2023-03-15T08:18:26.839Z,1008.25
2023-03-15T08:19:26.852Z,1008.25
2023-03-15T08:20:29.596Z,1008.28
2023-03-15T08:21:26.862Z,1008.23
2023-03-15T08:25:55.329Z,1008.22
2023-03-15T08:26:55.304Z,1008.21
2023-03-15T08:27:55.303Z,1008.22
2023-03-15T08:28:55.307Z,1008.24
2023-03-15T08:29:55.319Z,1008.23
2023-03-15T08:30:55.322Z,1008.22
2023-03-15T08:31:55.436Z,1008.16
2023-03-15T08:40:37.009Z,1008.25
2023-03-15T08:41:36.168Z,1008.25
2023-03-15T08:42:36.145Z,1008.30
2023-03-15T08:43:36.169Z,1008.28
2023-03-15T08:44:36.427Z,1008.27
2023-03-15T08:45:50.949Z,1008.30
2023-03-15T08:46:36.337Z,1008.32
2023-03-15T08:47:36.184Z,1008.32
2023-03-15T08:48:36.195Z,1008.31
2023-03-15T08:49:36.201Z,1008.30
2023-03-15T08:50:36.209Z,1008.33
2023-03-15T08:51:36.224Z,1008.35
2023-03-15T08:52:36.214Z,1008.36
2023-03-15T08:53:36.217Z,1008.39
2023-03-15T08:54:36.229Z,1008.42
2023-03-15T08:55:36.242Z,1008.43
2023-03-15T08:56:36.242Z,1008.47
2023-03-15T08:57:36.277Z,1008.59
2023-03-15T08:58:36.252Z,1008.52
2023-03-15T08:59:36.260Z,1008.61
2023-03-15T09:00:36.256Z,1008.63
2023-03-15T09:01:36.267Z,1008.67
2023-03-15T09:02:36.336Z,1008.59
2023-03-15T09:03:36.284Z,1008.50
2023-03-15T09:04:36.371Z,1008.64
2023-03-15T09:05:36.326Z,1008.65
2023-03-15T09:06:36.296Z,1008.64
2023-03-15T09:07:36.305Z,1008.66
2023-03-15T09:08:36.305Z,1008.72
2023-03-15T09:09:36.326Z,1008.66
2023-03-15T09:10:36.330Z,1008.74
2023-03-15T09:11:36.323Z,1008.65
2023-03-15T09:12:36.345Z,1008.57
2023-03-15T09:13:36.371Z,1008.57
2023-03-15T09:14:36.349Z,1008.52
2023-03-15T09:15:36.360Z,1008.59
2023-03-15T09:23:13.937Z,1008.73
2023-03-15T09:24:13.954Z,1008.69
2023-03-15T09:25:13.957Z,1008.75
2023-03-15T09:26:13.969Z,1008.73
2023-03-15T09:27:13.968Z,1008.68
2023-03-15T09:28:13.999Z,1008.72
2023-03-15T09:29:14.014Z,1008.74
2023-03-15T09:30:13.992Z,1008.74
2023-03-15T09:31:14.088Z,1008.85
2023-03-15T09:32:14.012Z,1008.81
2023-03-15T09:33:14.013Z,1008.84
2023-03-15T09:34:14.025Z,1008.85
2023-03-15T09:35:14.032Z,1008.93
2023-03-15T09:36:14.049Z,1008.87
2023-03-15T09:37:14.042Z,1008.87
2023-03-15T09:39:06.621Z,1008.82
2023-03-15T09:40:06.646Z,1008.74
2023-03-15T09:41:06.673Z,1008.77
2023-03-15T09:42:06.754Z,1008.80
2023-03-15T09:43:06.660Z,1008.81
2023-03-15T09:44:06.667Z,1008.80
2023-03-15T09:45:06.709Z,1008.89
2023-03-15T09:46:06.746Z,1008.89
2023-03-15T09:47:06.685Z,1008.96
2023-03-15T09:48:06.696Z,1008.96
2023-03-15T09:49:06.753Z,1009.04
2023-03-15T09:50:06.708Z,1009.05
2023-03-15T09:51:06.725Z,1009.09
2023-03-15T09:52:06.737Z,1009.09
2023-03-15T09:53:06.734Z,1009.00
2023-03-15T09:54:06.754Z,1009.10
2023-03-15T09:55:06.759Z,1009.08
2023-03-15T09:56:06.769Z,1009.12
2023-03-15T09:57:06.775Z,1009.10
2023-03-15T09:58:06.797Z,1009.06
2023-03-15T09:59:06.805Z,1009.12
2023-03-15T10:00:06.803Z,1009.17
2023-03-15T10:01:06.998Z,1009.09
2023-03-15T10:02:06.814Z,1009.11
2023-03-15T10:03:06.846Z,1009.12
2023-03-15T10:04:06.855Z,1009.13
2023-03-15T10:05:06.846Z,1009.10
2023-03-15T10:06:06.850Z,1009.16
2023-03-15T10:07:06.863Z,1009.17
2023-03-15T10:08:06.864Z,1009.22
2023-03-15T10:09:06.888Z,1009.22
2023-03-15T10:10:06.884Z,1009.26
2023-03-15T10:15:56.196Z,1009.26
2023-03-15T10:16:56.168Z,1009.24
2023-03-15T10:17:56.156Z,1009.30
2023-03-15T10:18:56.155Z,1009.34
2023-03-15T10:19:56.167Z,1009.28
2023-03-15T10:20:56.172Z,1009.16
2023-03-15T10:21:56.184Z,1009.31
2023-03-15T10:22:56.199Z,1009.25
2023-03-15T10:25:08.805Z,1009.23
2023-03-15T10:26:08.829Z,1009.21
2023-03-15T10:27:08.826Z,1009.08
2023-03-15T10:28:08.838Z,1009.25
2023-03-15T10:29:08.856Z,1009.16
2023-03-15T10:30:08.868Z,1009.20
2023-03-15T10:31:10.357Z,1009.12
2023-03-15T10:32:09.032Z,1009.09
2023-03-15T10:33:08.915Z,1009.12
2023-03-15T10:34:08.916Z,1009.15
2023-03-15T10:35:08.932Z,1009.12
2023-03-15T10:36:11.405Z,1009.17
2023-03-15T10:37:08.944Z,1009.16
2023-03-15T10:38:08.956Z,1009.19
2023-03-15T10:39:08.967Z,1009.25
2023-03-15T10:40:08.984Z,1009.20
2023-03-15T10:41:10.003Z,1009.20
2023-03-15T10:42:09.008Z,1009.22
2023-03-15T10:43:10.261Z,1009.16
2023-03-15T10:44:09.018Z,1009.23
2023-03-15T10:45:09.041Z,1009.16
2023-03-15T10:46:09.143Z,1009.17
2023-03-15T10:47:22.168Z,1009.21
2023-03-15T10:48:09.100Z,1009.18
2023-03-15T10:49:09.134Z,1009.20
2023-03-15T10:50:09.100Z,1009.13
2023-03-15T10:51:09.112Z,1009.17
2023-03-15T10:52:09.117Z,1009.14
2023-03-15T10:53:09.145Z,1009.17
2023-03-15T10:54:09.141Z,1009.20
2023-03-15T10:55:09.170Z,1009.20
2023-03-15T10:56:09.173Z,1009.20
2023-03-15T10:57:09.180Z,1009.24
2023-03-15T10:58:09.199Z,1009.23
2023-03-15T10:59:12.789Z,1009.27
2023-03-15T11:00:09.220Z,1009.27
2023-03-15T11:01:09.231Z,1009.29
2023-03-15T11:02:09.388Z,1009.26
2023-03-15T11:03:09.277Z,1009.28
2023-03-15T11:04:09.286Z,1009.22
2023-03-15T11:05:09.268Z,1009.26
2023-03-15T11:06:09.284Z,1009.23
2023-03-15T11:07:09.303Z,1009.22
2023-03-15T11:08:09.306Z,1009.19
2023-03-15T11:09:09.329Z,1009.23
2023-03-15T11:10:09.341Z,1009.24
2023-03-15T11:11:09.351Z,1009.28
2023-03-15T11:12:09.365Z,1009.29
2023-03-15T11:13:09.384Z,1009.31
2023-03-15T11:14:09.384Z,1009.32
2023-03-15T11:15:09.398Z,1009.40
2023-03-15T11:16:09.452Z,1009.42
2023-03-15T11:17:09.417Z,1009.43
2023-03-15T11:18:09.609Z,1009.41
2023-03-15T11:19:09.436Z,1009.46
2023-03-15T11:20:09.478Z,1009.43
2023-03-15T11:21:09.454Z,1009.42
2023-03-15T11:22:09.462Z,1009.46
2023-03-15T11:23:09.478Z,1009.46
2023-03-15T11:24:09.475Z,1009.44
2023-03-15T11:25:09.491Z,1009.48
2023-03-15T11:26:09.617Z,1009.46
2023-03-15T11:27:09.502Z,1009.49
2023-03-15T11:28:09.507Z,1009.47
2023-03-15T11:29:09.522Z,1009.45
2023-03-15T11:30:09.540Z,1009.51
2023-03-15T11:31:09.602Z,1009.43
2023-03-15T11:32:09.548Z,1009.45
2023-03-15T11:33:09.579Z,1009.39
2023-03-15T11:34:09.571Z,1009.42
2023-03-15T11:35:09.599Z,1009.39
2023-03-15T11:36:12.246Z,1009.40
2023-03-15T11:37:11.593Z,1009.39
2023-03-15T11:38:15.455Z,1009.33
2023-03-15T11:39:09.645Z,1009.34
2023-03-15T11:40:12.142Z,1009.32
2023-03-15T11:41:09.684Z,1009.32
2023-03-15T11:42:11.175Z,1009.29
2023-03-15T11:43:52.243Z,1009.29
2023-03-15T11:44:52.263Z,1009.30
2023-03-15T11:45:52.354Z,1009.30
2023-03-15T11:46:52.276Z,1009.33
2023-03-15T11:47:52.297Z,1009.39
2023-03-15T11:48:52.305Z,1009.36
2023-03-15T11:49:52.321Z,1009.41
2023-03-15T11:50:52.332Z,1009.35
2023-03-15T11:51:52.358Z,1009.41
2023-03-15T11:52:52.354Z,1009.44
2023-03-15T11:53:52.362Z,1009.44
2023-03-15T11:54:52.378Z,1009.40
2023-03-15T11:55:52.392Z,1009.43
2023-03-15T11:56:52.403Z,1009.44
2023-03-15T11:58:34.965Z,1009.48
2023-03-15T11:59:35.116Z,1009.43
2023-03-15T12:00:34.991Z,1009.46
2023-03-15T12:01:35.009Z,1009.44
2023-03-15T12:02:35.040Z,1009.42
2023-03-15T12:03:35.088Z,1009.47
2023-03-15T12:04:35.041Z,1009.36
2023-03-15T12:05:35.063Z,1009.36
2023-03-15T12:06:35.079Z,1009.36
2023-03-15T12:07:35.154Z,1009.28
2023-03-15T12:08:38.545Z,1009.33
2023-03-15T12:09:35.127Z,1009.28
2023-03-15T12:10:35.163Z,1009.21
2023-03-15T12:11:35.161Z,1009.23
2023-03-15T12:20:05.368Z,1009.27
2023-03-15T12:47:32.277Z,1010.15
2023-03-15T12:48:32.137Z,1010.16
2023-03-15T12:49:34.782Z,1010.11
2023-03-15T12:50:32.162Z,1010.11
2023-03-15T12:51:32.177Z,1010.23
2023-03-15T12:52:32.183Z,1010.24
2023-03-15T12:53:32.198Z,1010.19
2023-03-15T12:54:32.196Z,1010.16
2023-03-15T12:55:32.215Z,1010.13
2023-03-15T12:56:32.226Z,1010.21
2023-03-15T12:57:32.228Z,1010.22
2023-03-15T12:58:32.238Z,1010.22
2023-03-15T12:59:32.257Z,1010.25
2023-03-15T13:00:32.248Z,1010.23
2023-03-15T13:01:32.289Z,1010.34
2023-03-15T13:02:42.900Z,1010.39
2023-03-15T13:03:32.357Z,1010.39
2023-03-15T13:04:32.287Z,1010.36
2023-03-15T13:05:32.298Z,1010.35
2023-03-15T13:06:32.308Z,1010.36
2023-03-15T13:07:36.868Z,1010.30